createdAt,value
2017-09-13T00:00:40.053Z,78.4
2017-09-13T00:01:38.838Z,78.4
2017-09-13T00:05:35.658Z,78.4
2017-09-13T00:06:35.076Z,78.4
2017-09-13T00:08:33.629Z,78.4
2017-09-13T00:16:26.491Z,78.3
2017-09-13T00:17:26.281Z,78.2
2017-09-13T00:18:25.189Z,78.3
2017-09-13T00:19:24.482Z,78.2
2017-09-13T00:21:22.912Z,78.1
2017-09-13T00:27:18.121Z,77.8
2017-09-13T00:29:16.418Z,77.7
2017-09-13T00:30:15.836Z,77.7
2017-09-13T00:32:14.382Z,77.6
2017-09-13T00:33:13.041Z,77.6
2017-09-13T00:35:11.348Z,77.6
2017-09-13T00:36:10.512Z,77.5
2017-09-13T00:38:08.943Z,77.4
2017-09-13T00:40:07.627Z,77.4
2017-09-13T00:43:05.192Z,77.3
2017-09-13T00:45:03.245Z,77.1
2017-09-13T00:47:01.673Z,77.2
2017-09-13T00:49:59.353Z,77.1
2017-09-13T00:50:58.642Z,77.1
2017-09-13T00:51:58.064Z,77.1
2017-09-13T00:56:53.766Z,77.1
2017-09-13T00:57:52.929Z,77
2017-09-13T01:01:49.504Z,76.9
2017-09-13T01:02:48.918Z,76.9
2017-09-13T01:03:48.209Z,76.9
2017-09-13T01:04:47.247Z,76.8
2017-09-13T01:05:46.409Z,77
2017-09-13T01:06:45.568Z,77.1
2017-09-13T01:09:43.127Z,77.1
2017-09-13T01:10:42.415Z,77.1
2017-09-13T01:11:41.955Z,77.2
2017-09-13T01:12:40.747Z,77.2
2017-09-13T01:13:39.665Z,77.2
2017-09-13T01:14:38.952Z,77.3
2017-09-13T01:16:37.502Z,77.4
2017-09-13T01:17:36.793Z,77.5
2017-09-13T01:18:35.699Z,77.5
2017-09-13T01:20:34.250Z,77.4
2017-09-13T01:21:33.543Z,77.4
2017-09-13T01:22:32.700Z,77.5
2017-09-13T01:24:30.749Z,77.4
2017-09-13T01:26:29.171Z,77.4
2017-09-13T01:27:28.333Z,77.4
2017-09-13T01:29:27.007Z,77.4
2017-09-13T01:30:25.798Z,77.4
2017-09-13T01:31:25.338Z,77.5
2017-09-13T01:33:23.894Z,77.6
2017-09-13T01:34:22.682Z,77.5
2017-09-13T01:39:19.019Z,77.6
2017-09-13T01:40:17.930Z,77.6
2017-09-13T01:41:17.218Z,77.5
2017-09-13T01:42:16.509Z,77.5
2017-09-13T01:43:15.670Z,77.5
2017-09-13T01:44:14.837Z,77.6
2017-09-13T01:45:13.751Z,77.6
2017-09-13T01:47:12.180Z,77.8
2017-09-13T01:49:10.483Z,78
2017-09-13T01:50:09.651Z,78.1
2017-09-13T01:51:09.061Z,78.2
2017-09-13T01:52:08.346Z,78.1
2017-09-13T01:53:07.379Z,78.1
2017-09-13T01:56:04.938Z,78.3
2017-09-13T01:59:02.622Z,78.6
2017-09-13T02:00:01.801Z,78.5
2017-09-13T02:01:00.969Z,78.5
2017-09-13T02:02:59.011Z,78.6
2017-09-13T02:04:57.808Z,78.9
2017-09-13T02:05:56.990Z,78.8
2017-09-13T02:08:54.796Z,78.7
2017-09-13T02:10:52.468Z,79.1
2017-09-13T02:12:51.022Z,79.3
2017-09-13T02:13:50.319Z,79.2
2017-09-13T02:14:49.100Z,79.4
2017-09-13T02:15:48.777Z,79.4
2017-09-13T02:17:46.940Z,79.3
2017-09-13T02:19:45.487Z,79.4
2017-09-13T02:21:43.539Z,79.5
2017-09-13T02:22:42.963Z,79.4
2017-09-13T02:23:42.327Z,79.4
2017-09-13T02:27:38.646Z,79.5
2017-09-13T02:28:38.242Z,79.6
2017-09-13T02:31:36.058Z,79.5
2017-09-13T02:32:34.844Z,79.6
2017-09-13T02:34:33.267Z,79.6
2017-09-13T02:36:31.439Z,79.5
2017-09-13T02:37:30.865Z,79.6
2017-09-13T02:38:30.281Z,79.5
2017-09-13T02:40:28.209Z,79.5
2017-09-13T02:41:27.755Z,79.5
2017-09-13T02:44:25.200Z,79.4
2017-09-13T02:47:30.064Z,79.4
2017-09-13T02:48:21.682Z,79.3
2017-09-13T02:49:20.976Z,79.2
2017-09-13T02:53:17.675Z,79
2017-09-13T02:54:16.857Z,79
2017-09-13T02:58:13.806Z,78.7
2017-09-13T03:00:11.982Z,78.6
2017-09-13T03:01:11.273Z,78.5
2017-09-13T03:02:10.438Z,78.7
2017-09-13T03:05:08.004Z,78.7
2017-09-13T03:06:07.301Z,78.7
2017-09-13T03:09:04.862Z,78.7
2017-09-13T03:10:04.148Z,78.8
2017-09-13T03:11:03.442Z,78.7
2017-09-13T03:12:02.107Z,78.7
2017-09-13T03:13:01.530Z,78.7
2017-09-13T03:14:59.829Z,78.9
2017-09-13T03:15:59.249Z,78.9
2017-09-13T03:16:58.558Z,78.9
2017-09-13T03:18:56.983Z,78.9
2017-09-13T03:19:55.777Z,78.9
2017-09-13T03:20:55.321Z,79
2017-09-13T03:21:53.988Z,79
2017-09-13T03:24:52.050Z,79
2017-09-13T03:27:49.494Z,79
2017-09-13T03:30:47.064Z,79.1
2017-09-13T03:32:45.253Z,79.2
2017-09-13T03:34:43.939Z,79.2
2017-09-13T03:35:43.350Z,79.3
2017-09-13T03:36:42.136Z,79.3
2017-09-13T03:40:39.082Z,79.4
2017-09-13T03:46:34.433Z,79.4
2017-09-13T03:47:32.982Z,79.4
2017-09-13T03:48:32.399Z,79.4
2017-09-13T03:50:31.208Z,79.4
2017-09-13T03:51:29.995Z,79.4
2017-09-13T03:52:29.163Z,79.4
2017-09-13T03:53:28.203Z,79.4
2017-09-13T03:54:27.748Z,79.3
2017-09-13T03:55:27.035Z,79.3
2017-09-13T03:56:25.952Z,79.3
2017-09-13T03:57:25.372Z,79.2
2017-09-13T03:58:24.558Z,79.3
2017-09-13T04:00:22.612Z,79.2
2017-09-13T04:03:20.423Z,79.1
2017-09-13T04:05:18.722Z,78.8
2017-09-13T04:06:18.013Z,78.6
2017-09-13T04:08:16.431Z,78.5
2017-09-13T04:09:15.219Z,78.4
2017-09-13T04:11:13.895Z,78.2
2017-09-13T04:12:13.063Z,78.1
2017-09-13T04:13:12.229Z,78
2017-09-13T04:14:11.530Z,77.8
2017-09-13T04:15:10.821Z,77.5
2017-09-13T04:16:09.988Z,77.5
2017-09-13T04:17:09.156Z,77.5
2017-09-13T04:18:08.326Z,77.5
2017-09-13T04:20:06.644Z,77.3
2017-09-13T04:21:05.815Z,77.1
2017-09-13T04:22:05.232Z,77
2017-09-13T04:23:04.403Z,77
2017-09-13T04:24:03.570Z,76.8
2017-09-13T04:25:02.608Z,76.7
2017-09-13T04:27:00.919Z,76.6
2017-09-13T04:28:00.212Z,76.5
2017-09-13T04:30:57.650Z,76.5
2017-09-13T04:31:56.818Z,76.4
2017-09-13T04:32:55.855Z,76.4
2017-09-13T04:33:55.146Z,76.2
2017-09-13T04:34:54.307Z,76.2
2017-09-13T04:35:53.737Z,76.2
2017-09-13T04:36:53.194Z,76.2
2017-09-13T04:37:52.484Z,76.1
2017-09-13T04:38:51.151Z,76.1
2017-09-13T04:39:50.442Z,76
2017-09-13T04:40:21.301Z,76
2017-09-13T04:40:51.532Z,75.9
2017-09-13T04:41:49.189Z,75.9
2017-09-13T04:42:48.362Z,75.9
2017-09-13T04:43:47.529Z,75.8
2017-09-13T04:44:47.077Z,75.8
2017-09-13T04:45:45.877Z,75.8
2017-09-13T04:46:44.791Z,75.9
2017-09-13T04:47:44.335Z,75.7
2017-09-13T04:48:43.663Z,75.7
2017-09-13T04:49:42.703Z,75.7
2017-09-13T04:50:41.994Z,75.7
2017-09-13T04:51:41.036Z,75.7
2017-09-13T04:52:40.457Z,75.6
2017-09-13T04:53:39.504Z,75.5
2017-09-13T04:54:38.675Z,75.5
2017-09-13T04:56:36.980Z,75.5
2017-09-13T04:57:36.404Z,75.5
2017-09-13T04:58:35.699Z,75.5
2017-09-13T04:59:34.870Z,75.5
2017-09-13T05:00:34.168Z,75.5
2017-09-13T05:01:33.226Z,75.3
2017-09-13T05:02:32.267Z,75.4
2017-09-13T05:03:31.692Z,75.4
2017-09-13T05:04:30.605Z,75.4
2017-09-13T05:05:29.905Z,75
2017-09-13T05:06:29.201Z,75
2017-09-13T05:07:28.367Z,75
2017-09-13T05:08:27.531Z,74.9
2017-09-13T05:09:26.948Z,74.9
2017-09-13T05:10:25.748Z,74.8
2017-09-13T05:11:25.422Z,74.7
2017-09-13T05:12:24.496Z,74.6
2017-09-13T05:13:23.801Z,74.4
2017-09-13T05:14:22.966Z,74.4
2017-09-13T05:15:21.882Z,74.5
2017-09-13T05:16:21.550Z,74.3
2017-09-13T05:17:20.091Z,74.3
2017-09-13T05:18:19.898Z,74.3
2017-09-13T05:19:18.689Z,74.1
2017-09-13T05:20:17.986Z,73.9
2017-09-13T05:21:17.416Z,73.8
2017-09-13T05:22:16.200Z,73.8
2017-09-13T05:23:15.994Z,73.8
2017-09-13T05:24:15.287Z,73.8
2017-09-13T05:25:14.073Z,73.7
2017-09-13T05:26:13.110Z,73.5
2017-09-13T05:27:12.912Z,73.6
2017-09-13T05:28:11.950Z,73.3
2017-09-13T05:29:10.992Z,73.3
2017-09-13T05:30:10.537Z,73.4
2017-09-13T05:31:09.201Z,73.5
2017-09-13T05:32:08.369Z,73.5
2017-09-13T05:33:07.534Z,73.4
2017-09-13T05:34:07.326Z,73.4
2017-09-13T05:35:06.244Z,73.5
2017-09-13T05:36:05.412Z,73.5
2017-09-13T05:37:04.703Z,73.3
2017-09-13T05:38:04.381Z,73.4
2017-09-13T05:39:03.557Z,73.5
2017-09-13T05:40:02.471Z,73.6
2017-09-13T05:41:01.760Z,73.6
2017-09-13T05:42:01.059Z,73.6
2017-09-13T05:42:59.974Z,73.7
2017-09-13T05:43:59.400Z,73.7
2017-09-13T05:44:58.437Z,73.6
2017-09-13T05:45:57.983Z,73.2
2017-09-13T05:46:56.897Z,73.1
2017-09-13T05:47:56.197Z,73.1
2017-09-13T05:48:55.746Z,72.8
2017-09-13T05:49:54.656Z,73
2017-09-13T05:51:52.960Z,73
2017-09-13T05:52:52.004Z,72.7
2017-09-13T05:53:51.438Z,72.7
2017-09-13T05:54:50.982Z,72.6
2017-09-13T05:55:50.147Z,72.9
2017-09-13T05:56:49.195Z,73.2
2017-09-13T05:57:48.233Z,72.6
2017-09-13T05:58:47.394Z,72.7
2017-09-13T05:59:46.683Z,72.7
2017-09-13T06:01:45.355Z,72.8
2017-09-13T06:02:44.272Z,72.8
2017-09-13T06:03:43.307Z,72.9
2017-09-13T06:04:42.979Z,72.7
2017-09-13T06:05:42.147Z,72.5
2017-09-13T06:06:41.455Z,72.2
2017-09-13T06:07:40.495Z,72
2017-09-13T06:08:39.907Z,72
2017-09-13T06:09:39.070Z,72.1
2017-09-13T06:10:38.235Z,71.7
2017-09-13T06:11:37.781Z,71.6
2017-09-13T06:12:36.444Z,71.6
2017-09-13T06:13:35.987Z,72
2017-09-13T06:14:35.153Z,72
2017-09-13T06:15:34.448Z,71.9
2017-09-13T06:16:04.804Z,71.9
2017-09-13T06:16:35.157Z,72.1
2017-09-13T06:17:05.130Z,72.1
2017-09-13T06:18:32.100Z,72.2
2017-09-13T06:19:31.019Z,72.5
2017-09-13T06:20:30.438Z,72.6
2017-09-13T06:21:29.604Z,73.1
2017-09-13T06:22:28.894Z,73.1
2017-09-13T06:23:28.186Z,74.3
2017-09-13T06:24:27.353Z,75.1
2017-09-13T06:25:26.519Z,75.8
2017-09-13T06:26:25.684Z,76.6
2017-09-13T06:27:25.068Z,76.5
2017-09-13T06:28:24.231Z,77.7
2017-09-13T06:29:23.652Z,78.6
2017-09-13T06:30:22.440Z,78.5
2017-09-13T06:31:22.112Z,79.2
2017-09-13T06:32:20.900Z,79.1
2017-09-13T06:33:20.453Z,79.5
2017-09-13T06:34:19.494Z,79.8
2017-09-13T06:35:19.036Z,80.3
2017-09-13T06:36:17.826Z,80.3
2017-09-13T06:37:17.240Z,80.3
2017-09-13T06:38:16.283Z,78.8
2017-09-13T06:39:15.450Z,79.2
2017-09-13T06:40:14.493Z,79
2017-09-13T06:41:13.906Z,79.1
2017-09-13T06:42:13.359Z,79.4
2017-09-13T06:43:12.900Z,79.4
2017-09-13T06:44:11.821Z,78.7
2017-09-13T06:45:11.118Z,78.8
2017-09-13T06:46:09.909Z,79.4
2017-09-13T06:47:09.452Z,78.8
2017-09-13T06:48:08.618Z,78.3
2017-09-13T06:49:08.040Z,78.9
2017-09-13T06:50:06.974Z,78.5
2017-09-13T06:51:06.518Z,78
2017-09-13T06:52:05.176Z,78.5
2017-09-13T06:53:04.466Z,78.4
2017-09-13T06:54:04.013Z,78.8
2017-09-13T06:55:03.433Z,78.8
2017-09-13T06:56:02.231Z,78.8
2017-09-13T06:57:01.673Z,78.3
2017-09-13T06:58:59.849Z,78.6
2017-09-13T06:59:59.514Z,79.4
2017-09-13T07:00:58.679Z,78.9
2017-09-13T07:01:57.850Z,79.3
2017-09-13T07:02:56.897Z,79
2017-09-13T07:03:56.312Z,78.7
2017-09-13T07:04:55.229Z,79.1
2017-09-13T07:05:54.524Z,79.1
2017-09-13T07:06:53.575Z,79.1
2017-09-13T07:07:24.178Z,79.1
2017-09-13T07:07:54.412Z,78.7
2017-09-13T07:08:25.019Z,78.7
2017-09-13T07:08:55.621Z,78.2
2017-09-13T07:09:26.222Z,78.2
2017-09-13T07:09:56.955Z,79.1
2017-09-13T07:10:26.814Z,79.1
2017-09-13T07:12:49.279Z,79.7
2017-09-13T07:14:47.457Z,79.9
2017-09-13T07:15:46.752Z,80.5
2017-09-13T07:16:46.038Z,80.6
2017-09-13T07:17:45.337Z,80.8
2017-09-13T07:18:44.261Z,81
2017-09-13T07:19:43.555Z,81.3
2017-09-13T07:20:42.974Z,80.8
2017-09-13T07:21:42.388Z,81.1
2017-09-13T07:22:41.051Z,81.2
2017-09-13T07:23:40.614Z,81.6
2017-09-13T07:24:39.536Z,81.8
2017-09-13T07:26:37.965Z,82.3
2017-09-13T07:27:37.502Z,82.3
2017-09-13T07:28:36.292Z,82.7
2017-09-13T07:29:35.718Z,82.8
2017-09-13T07:30:34.892Z,82.6
2017-09-13T07:31:34.197Z,83
2017-09-13T07:33:32.502Z,82.8
2017-09-13T07:34:31.795Z,83.1
2017-09-13T07:35:31.345Z,83.1
2017-09-13T07:36:30.012Z,83.8
2017-09-13T07:37:29.433Z,83.6
2017-09-13T07:38:28.598Z,83.4
2017-09-13T07:39:27.772Z,83.3
2017-09-13T07:40:27.062Z,82.9
2017-09-13T07:41:26.351Z,83.5
2017-09-13T07:42:25.646Z,83.2
2017-09-13T07:43:24.568Z,82.8
2017-09-13T07:44:24.114Z,83.6
2017-09-13T07:45:23.284Z,83.6
2017-09-13T07:46:22.322Z,83.6
2017-09-13T07:47:21.738Z,83.5
2017-09-13T07:48:21.288Z,83.3
2017-09-13T07:49:20.327Z,82.6
2017-09-13T07:49:51.057Z,82.6
2017-09-13T07:51:18.527Z,82.7
2017-09-13T07:52:17.824Z,82.7
2017-09-13T07:53:17.120Z,82.1
2017-09-13T07:54:16.540Z,81.5
2017-09-13T07:55:15.330Z,80.5
2017-09-13T07:56:14.770Z,80.7
2017-09-13T07:57:14.062Z,80.8
2017-09-13T07:58:13.242Z,79.7
2017-09-13T07:59:12.665Z,79
2017-09-13T08:00:11.469Z,78.9
2017-09-13T08:01:10.758Z,79
2017-09-13T08:03:09.435Z,78.8
2017-09-13T08:04:08.222Z,78.2
2017-09-13T08:05:07.510Z,77.6
2017-09-13T08:06:06.672Z,78.2
2017-09-13T08:08:05.479Z,77.3
2017-09-13T08:09:04.522Z,77.6
2017-09-13T08:10:03.947Z,77.6
2017-09-13T08:11:02.741Z,77.6
2017-09-13T08:12:02.157Z,75.9
2017-09-13T08:13:01.589Z,76.5
2017-09-13T08:14:00.515Z,76
2017-09-13T08:14:59.933Z,77.2
2017-09-13T08:15:58.974Z,77
2017-09-13T08:16:58.400Z,76.7
2017-09-13T08:17:57.815Z,76
2017-09-13T08:18:56.600Z,75.9
2017-09-13T08:19:55.896Z,75.1
2017-09-13T08:20:55.313Z,75.3
2017-09-13T08:21:54.500Z,74.4
2017-09-13T08:22:53.802Z,73.9
2017-09-13T08:23:53.101Z,74.2
2017-09-13T08:24:51.887Z,73.5
2017-09-13T08:25:51.057Z,74.3
2017-09-13T08:26:50.479Z,74.1
2017-09-13T08:27:49.773Z,75
2017-09-13T08:28:48.814Z,75
2017-09-13T08:29:48.108Z,75
2017-09-13T08:30:47.651Z,75.6
2017-09-13T08:31:46.561Z,75.2
2017-09-13T08:32:45.727Z,75.6
2017-09-13T08:33:45.147Z,74.8
2017-09-13T08:34:44.567Z,75
2017-09-13T08:35:43.862Z,75.4
2017-09-13T08:36:42.778Z,75.2
2017-09-13T08:37:42.323Z,75.6
2017-09-13T08:38:41.498Z,75.8
2017-09-13T08:39:40.569Z,75.2
2017-09-13T08:40:39.870Z,74.1
2017-09-13T08:41:39.420Z,73.4
2017-09-13T08:42:38.210Z,72.5
2017-09-13T08:43:37.379Z,73
2017-09-13T08:44:36.796Z,73.1
2017-09-13T08:45:35.838Z,72.3
2017-09-13T08:46:06.062Z,72.3
2017-09-13T08:47:34.305Z,72.9
2017-09-13T08:48:33.853Z,72.9
2017-09-13T08:49:32.900Z,72.8
2017-09-13T08:50:32.195Z,71.8
2017-09-13T08:51:31.488Z,70.7
2017-09-13T08:52:30.276Z,70.7
2017-09-13T08:53:30.082Z,70.5
2017-09-13T08:54:28.998Z,70.7
2017-09-13T08:55:28.666Z,70.4
2017-09-13T08:56:27.581Z,69.6
2017-09-13T08:57:27.001Z,70.3
2017-09-13T08:58:26.042Z,69.5
2017-09-13T08:59:25.465Z,69.8
2017-09-13T09:00:24.384Z,68
2017-09-13T09:01:23.683Z,67.3
2017-09-13T09:02:22.852Z,67.5
2017-09-13T09:03:22.274Z,67.5
2017-09-13T09:04:21.695Z,68.3
2017-09-13T09:05:20.740Z,67.7
2017-09-13T09:06:20.155Z,67.7
2017-09-13T09:07:19.080Z,67.7
2017-09-13T09:08:18.511Z,67.4
2017-09-13T09:09:17.796Z,67.5
2017-09-13T09:10:17.091Z,67.5
2017-09-13T09:11:16.141Z,66.7
2017-09-13T09:12:15.559Z,65.8
2017-09-13T09:13:14.600Z,66.4
2017-09-13T09:14:13.768Z,67.3
2017-09-13T09:15:13.066Z,67
2017-09-13T09:16:12.361Z,67
2017-09-13T09:16:42.713Z,67
2017-09-13T09:17:12.940Z,66.8
2017-09-13T09:18:11.235Z,64.8
2017-09-13T09:19:10.279Z,64.9
2017-09-13T09:21:08.710Z,63.7
2017-09-13T09:22:08.123Z,63.6
2017-09-13T09:23:07.419Z,62.7
2017-09-13T09:24:06.332Z,64.2
2017-09-13T09:25:05.877Z,64.2
2017-09-13T09:26:04.916Z,63.9
2017-09-13T09:27:04.473Z,63.9
2017-09-13T09:28:03.895Z,63.7
2017-09-13T09:29:02.689Z,62.6
2017-09-13T09:30:01.854Z,63.6
2017-09-13T09:31:01.404Z,63.1
2017-09-13T09:32:00.950Z,62.6
2017-09-13T09:33:00.379Z,61.9
2017-09-13T09:33:59.302Z,62.2
2017-09-13T09:35:57.602Z,62.3
2017-09-13T09:36:57.143Z,61.9
2017-09-13T09:37:56.309Z,61.7
2017-09-13T09:38:55.864Z,61.9
2017-09-13T09:39:54.652Z,62.2
2017-09-13T09:40:54.191Z,62.1
2017-09-13T09:41:53.613Z,60.6
2017-09-13T09:42:52.523Z,61.4
2017-09-13T09:44:50.950Z,60.3
2017-09-13T09:45:50.496Z,60.3
2017-09-13T09:46:49.662Z,61.3
2017-09-13T09:47:49.218Z,61.1
2017-09-13T09:49:47.517Z,60.9
2017-09-13T09:50:46.825Z,61.4
2017-09-13T09:51:46.382Z,60.8
2017-09-13T09:52:45.297Z,60.3
2017-09-13T09:53:44.849Z,60.3
2017-09-13T09:54:44.137Z,60.8
2017-09-13T09:55:43.428Z,61
2017-09-13T09:56:42.473Z,60.5
2017-09-13T09:57:41.766Z,61
2017-09-13T09:58:41.180Z,61
2017-09-13T09:59:40.475Z,61
2017-09-13T10:00:40.026Z,60.9
2017-09-13T10:01:39.070Z,60.8
2017-09-13T10:02:38.482Z,60.8
2017-09-13T10:03:37.899Z,60.3
2017-09-13T10:04:36.816Z,61
2017-09-13T10:05:36.109Z,61
2017-09-13T10:06:35.428Z,61.1
2017-09-13T10:07:34.848Z,60.3
2017-09-13T10:08:34.261Z,61.3
2017-09-13T10:09:33.058Z,62.2
2017-09-13T10:10:32.476Z,61.7
2017-09-13T10:11:31.520Z,61.5
2017-09-13T10:12:31.447Z,62.1
2017-09-13T10:13:30.247Z,62.3
2017-09-13T10:14:29.556Z,63
2017-09-13T10:15:29.096Z,62.8
2017-09-13T10:16:28.387Z,63.2
2017-09-13T10:17:27.931Z,62.7
2017-09-13T10:18:26.839Z,62.7
2017-09-13T10:19:26.133Z,63.3
2017-09-13T10:21:24.760Z,63.3
2017-09-13T10:22:24.060Z,63.1
2017-09-13T10:23:23.477Z,63.8
2017-09-13T10:24:22.898Z,63.7
2017-09-13T10:25:21.818Z,64.5
2017-09-13T10:26:20.864Z,65.3
2017-09-13T10:27:20.663Z,65.5
2017-09-13T10:28:19.581Z,64.8
2017-09-13T10:29:18.995Z,64.6
2017-09-13T10:30:18.290Z,65.5
2017-09-13T10:31:18.124Z,65.3
2017-09-13T10:32:16.913Z,65.1
2017-09-13T10:33:16.327Z,65.1
2017-09-13T10:34:15.365Z,65
2017-09-13T10:35:14.789Z,65.1
2017-09-13T10:36:14.215Z,64.5
2017-09-13T10:37:13.509Z,64.6
2017-09-13T10:38:12.420Z,64.7
2017-09-13T10:39:11.718Z,64.7
2017-09-13T10:40:11.138Z,64.7
2017-09-13T10:41:10.309Z,64.4
2017-09-13T10:42:09.867Z,64.4
2017-09-13T10:43:09.282Z,63.9
2017-09-13T10:44:08.323Z,62.8
2017-09-13T10:45:07.989Z,62.6
2017-09-13T10:46:06.774Z,63.1
2017-09-13T10:47:06.066Z,62.5
2017-09-13T10:48:05.487Z,62.9
2017-09-13T10:49:04.903Z,63.2
2017-09-13T10:50:04.486Z,63.2
2017-09-13T10:51:03.275Z,63.3
2017-09-13T10:52:02.822Z,62.3
2017-09-13T10:53:01.985Z,62.4
2017-09-13T10:54:01.289Z,62.5
2017-09-13T10:56:00.095Z,62.3
2017-09-13T10:56:59.013Z,61.2
2017-09-13T10:57:58.689Z,61.2
2017-09-13T10:58:57.483Z,61.2
2017-09-13T10:59:56.903Z,60.1
2017-09-13T11:00:56.450Z,60
2017-09-13T11:02:55.123Z,60.2
2017-09-13T11:03:54.042Z,60.3
2017-09-13T11:04:53.215Z,60.7
2017-09-13T11:05:52.883Z,60.7
2017-09-13T11:06:52.299Z,61.4
2017-09-13T11:07:51.464Z,60.4
2017-09-13T11:08:50.627Z,59.6
2017-09-13T11:09:49.796Z,58.9
2017-09-13T11:10:49.469Z,59
2017-09-13T11:11:48.648Z,58.5
2017-09-13T11:12:47.811Z,58.4
2017-09-13T11:13:47.373Z,57.2
2017-09-13T11:14:46.669Z,57.5
2017-09-13T11:15:45.717Z,57.7
2017-09-13T11:17:44.524Z,57.7
2017-09-13T11:18:43.575Z,58.4
2017-09-13T11:19:42.999Z,58.4
2017-09-13T11:20:42.542Z,57.9
2017-09-13T11:21:42.085Z,57.9
2017-09-13T11:22:40.902Z,57.9
2017-09-13T11:23:40.322Z,57.2
2017-09-13T11:24:39.741Z,57.8
2017-09-13T11:25:38.660Z,57
2017-09-13T11:26:38.081Z,57.6
2017-09-13T11:27:37.370Z,57.9
2017-09-13T11:28:36.803Z,56.9
2017-09-13T11:29:36.221Z,56.3
2017-09-13T11:30:35.510Z,56.5
2017-09-13T11:31:34.680Z,56.2
2017-09-13T11:32:34.354Z,56.5
2017-09-13T11:33:33.396Z,57.1
2017-09-13T11:34:32.956Z,56.6
2017-09-13T11:35:32.369Z,56.6
2017-09-13T11:36:31.280Z,56.6
2017-09-13T11:37:30.710Z,56.4
2017-09-13T11:38:29.877Z,56.8
2017-09-13T11:39:29.667Z,56.4
2017-09-13T11:40:28.582Z,56.6
2017-09-13T11:41:28.126Z,56.6
2017-09-13T11:42:27.417Z,56.6
2017-09-13T11:43:26.834Z,57.3
2017-09-13T11:45:25.512Z,56.6
2017-09-13T11:46:24.808Z,56.6
2017-09-13T11:47:23.976Z,56.9
2017-09-13T11:48:23.144Z,57.8
2017-09-13T11:49:22.689Z,57.4
2017-09-13T11:50:22.112Z,58.3
2017-09-13T11:51:21.148Z,57.7
2017-09-13T11:52:20.707Z,58.3
2017-09-13T11:53:20.259Z,57.9
2017-09-13T11:54:19.672Z,57.9
2017-09-13T11:55:18.212Z,58.5
2017-09-13T11:56:18.011Z,58.1
2017-09-13T11:57:17.306Z,58.6
2017-09-13T11:58:16.719Z,58.4
2017-09-13T11:59:15.889Z,58.6
2017-09-13T12:00:14.933Z,58.4
2017-09-13T12:01:14.602Z,58.7
2017-09-13T12:02:13.780Z,58.9
2017-09-13T12:03:13.330Z,59
2017-09-13T12:04:12.632Z,58.8
2017-09-13T12:05:11.676Z,59.1
2017-09-13T12:06:11.470Z,59.1
2017-09-13T12:07:10.764Z,59.1
2017-09-13T12:08:10.052Z,59.4
2017-09-13T12:09:09.097Z,59.7
2017-09-13T12:10:08.523Z,60.1
2017-09-13T12:11:08.066Z,59.8
2017-09-13T12:12:07.369Z,60
2017-09-13T12:13:06.791Z,60
2017-09-13T12:14:05.703Z,60.2
2017-09-13T12:15:05.375Z,59.7
2017-09-13T12:16:04.796Z,59.6
2017-09-13T12:17:03.958Z,59.6
2017-09-13T12:18:03.127Z,60
2017-09-13T12:19:02.427Z,60.3
2017-09-13T12:20:01.968Z,60.1
2017-09-13T12:21:01.259Z,59.9
2017-09-13T12:22:00.554Z,60.4
2017-09-13T12:22:59.726Z,60.2
2017-09-13T12:23:59.146Z,60
2017-09-13T12:24:58.564Z,60.1
2017-09-13T12:25:57.982Z,60.3
2017-09-13T12:26:57.284Z,60.1
2017-09-13T12:27:56.578Z,60
2017-09-13T12:28:55.870Z,59.9
2017-09-13T12:29:55.036Z,60.5
2017-09-13T12:30:54.607Z,60.4
2017-09-13T12:31:53.903Z,60.4
2017-09-13T12:32:53.317Z,60.4
2017-09-13T12:33:52.355Z,60.8
2017-09-13T12:34:51.643Z,60.8
2017-09-13T12:35:50.929Z,60.8
2017-09-13T12:36:50.467Z,60.8
2017-09-13T12:37:50.142Z,60.6
2017-09-13T12:38:48.939Z,61.1
2017-09-13T12:39:48.615Z,60.9
2017-09-13T12:40:48.161Z,60.6
2017-09-13T12:41:46.828Z,60.6
2017-09-13T12:42:46.257Z,60.7
2017-09-13T12:43:45.681Z,60.5
2017-09-13T12:44:44.973Z,60.6
2017-09-13T12:45:44.520Z,60.5
2017-09-13T12:46:43.565Z,60.6
2017-09-13T12:47:42.981Z,61
2017-09-13T12:48:42.279Z,61.2
2017-09-13T12:50:40.960Z,61.3
2017-09-13T12:51:40.753Z,61.2
2017-09-13T12:52:39.791Z,61.1
2017-09-13T12:53:39.082Z,61.5
2017-09-13T12:54:38.499Z,61.5
2017-09-13T12:55:37.919Z,61.5
2017-09-13T12:56:37.087Z,61.7
2017-09-13T12:57:36.252Z,61.9
2017-09-13T12:58:35.670Z,62.4
2017-09-13T12:59:35.095Z,62.2
2017-09-13T13:00:05.200Z,62.2
2017-09-13T13:01:33.680Z,62.2
2017-09-13T13:02:32.972Z,62.6
2017-09-13T13:03:32.640Z,62.6
2017-09-13T13:04:31.568Z,63.1
2017-09-13T13:05:30.982Z,63
2017-09-13T13:06:30.170Z,63.1
2017-09-13T13:07:29.584Z,62.9
2017-09-13T13:08:29.005Z,62.9
2017-09-13T13:09:28.679Z,62.9
2017-09-13T13:10:27.846Z,62.9
2017-09-13T13:11:26.887Z,62.8
2017-09-13T13:12:26.188Z,63
2017-09-13T13:13:25.606Z,63.1
2017-09-13T13:14:24.904Z,62.9
2017-09-13T13:15:24.323Z,62.7
2017-09-13T13:16:23.614Z,62.7
2017-09-13T13:17:23.166Z,62.5
2017-09-13T13:18:22.459Z,62.5
2017-09-13T13:19:21.871Z,62.5
2017-09-13T13:20:21.417Z,62.2
2017-09-13T13:21:20.077Z,62.4
2017-09-13T13:22:19.506Z,62.5
2017-09-13T13:23:18.920Z,62.3
2017-09-13T13:24:18.475Z,62.5
2017-09-13T13:25:17.669Z,63
2017-09-13T13:26:17.355Z,63.2
2017-09-13T13:27:16.145Z,63.2
2017-09-13T13:28:15.702Z,63.2
2017-09-13T13:29:15.119Z,63.4
2017-09-13T13:30:14.415Z,63.7
2017-09-13T13:31:13.707Z,63.9
2017-09-13T13:32:13.247Z,64.4
2017-09-13T13:33:12.290Z,64.3
2017-09-13T13:34:11.582Z,64.5
2017-09-13T13:35:10.874Z,64.1
2017-09-13T13:36:10.167Z,64.3
2017-09-13T13:37:10.090Z,64.2
2017-09-13T13:38:08.749Z,63.9
2017-09-13T13:39:08.670Z,64.1
2017-09-13T13:40:08.089Z,64.3
2017-09-13T13:41:06.759Z,64.1
2017-09-13T13:42:06.302Z,64.2
2017-09-13T13:42:36.789Z,64.2
2017-09-13T13:43:06.922Z,64.3
2017-09-13T13:43:37.152Z,64.3
2017-09-13T13:44:07.887Z,64.2
2017-09-13T13:45:04.426Z,64.3
2017-09-13T13:46:03.969Z,64.3
2017-09-13T13:47:02.887Z,64.3
2017-09-13T13:48:02.265Z,64
2017-09-13T13:49:01.683Z,63.9
2017-09-13T13:50:00.980Z,64
2017-09-13T13:51:00.400Z,64.2
2017-09-13T13:51:59.827Z,64.4
2017-09-13T13:53:58.764Z,64.3
2017-09-13T13:54:57.557Z,64.2
2017-09-13T13:55:56.983Z,64.2
2017-09-13T13:56:56.532Z,63.1
2017-09-13T13:57:55.955Z,62.5
2017-09-13T13:58:54.997Z,62.4
2017-09-13T13:59:54.167Z,62.3
2017-09-13T14:00:53.839Z,62.3
2017-09-13T14:01:52.753Z,62.3
2017-09-13T14:02:52.683Z,62
2017-09-13T14:03:51.724Z,61.7
2017-09-13T14:04:51.018Z,61.7
2017-09-13T14:05:50.442Z,61.1
2017-09-13T14:06:49.987Z,60.9
2017-09-13T14:07:48.899Z,61
2017-09-13T14:08:48.581Z,60.5
2017-09-13T14:09:47.371Z,59.9
2017-09-13T14:10:47.170Z,59.6
2017-09-13T14:11:46.461Z,59.1
2017-09-13T14:12:45.884Z,59.2
2017-09-13T14:13:45.180Z,59
2017-09-13T14:14:44.470Z,58.7
2017-09-13T14:15:43.891Z,58.8
2017-09-13T14:16:43.062Z,58.8
2017-09-13T14:17:42.347Z,58.2
2017-09-13T14:18:41.766Z,58.3
2017-09-13T14:19:41.059Z,58.3
2017-09-13T14:20:40.482Z,58.1
2017-09-13T14:21:39.401Z,58.5
2017-09-13T14:22:39.316Z,58.4
2017-09-13T14:23:38.363Z,58.4
2017-09-13T14:24:37.782Z,59
2017-09-13T14:25:37.197Z,58.7
2017-09-13T14:26:36.366Z,58.7
2017-09-13T14:27:35.659Z,59.2
2017-09-13T14:28:35.216Z,59.2
2017-09-13T14:29:34.380Z,59.6
2017-09-13T14:30:33.798Z,59.5
2017-09-13T14:31:33.219Z,59.3
2017-09-13T14:32:32.517Z,59.4
2017-09-13T14:34:31.322Z,59.1
2017-09-13T14:35:30.239Z,59.2
2017-09-13T14:36:30.040Z,59
2017-09-13T14:37:29.093Z,58.6
2017-09-13T14:38:28.136Z,58.6
2017-09-13T14:38:58.743Z,58.6
2017-09-13T14:39:28.844Z,58.9
2017-09-13T14:39:59.326Z,58.9
2017-09-13T14:41:26.431Z,58.3
2017-09-13T14:42:25.979Z,58.3
2017-09-13T14:43:25.272Z,58.3
2017-09-13T14:44:24.814Z,58.2
2017-09-13T14:46:23.496Z,58.8
2017-09-13T14:47:22.792Z,59.1
2017-09-13T14:48:22.215Z,58.9
2017-09-13T14:49:21.132Z,58.6
2017-09-13T14:50:20.549Z,58.9
2017-09-13T14:51:19.845Z,59.1
2017-09-13T14:52:19.646Z,58.7
2017-09-13T14:54:17.692Z,59.6
2017-09-13T14:55:17.362Z,59.4
2017-09-13T14:56:16.653Z,59.3
2017-09-13T14:57:16.073Z,59.3
2017-09-13T14:58:15.374Z,59.7
2017-09-13T14:59:14.547Z,59.7
2017-09-13T15:00:14.465Z,59.7
2017-09-13T15:01:13.502Z,59.7
2017-09-13T15:02:12.698Z,60.4
2017-09-13T15:03:12.011Z,60
2017-09-13T15:04:11.558Z,60.4
2017-09-13T15:05:10.985Z,60.3
2017-09-13T15:06:10.535Z,60.7
2017-09-13T15:07:10.084Z,61.3
2017-09-13T15:08:09.152Z,61.4
2017-09-13T15:09:08.294Z,61.5
2017-09-13T15:10:07.462Z,61.9
2017-09-13T15:11:07.006Z,62.1
2017-09-13T15:12:06.479Z,62.2
2017-09-13T15:13:05.778Z,62.5
2017-09-13T15:14:05.191Z,62.5
2017-09-13T15:15:04.487Z,62.6
2017-09-13T15:16:03.527Z,63
2017-09-13T15:17:03.326Z,62.8
2017-09-13T15:18:02.878Z,63
2017-09-13T15:19:02.046Z,63
2017-09-13T15:20:01.085Z,63
2017-09-13T15:21:00.633Z,62.7